Captain Charles Philbrook — WBR5375 — position and weather

sailwx.info

Track history (hours):
 
Tides and Currents Weather Stations Pressure Air Temp Water Temp Dewpoint Dewpoint Depression Visibility Wind Speed Wind Dir Waves Ship Positions

Captain Charles Philbrook

Owner: MAINE STATE FERRY SERVICE, ROCKLAND, ME. More information available from US FCC via Universal Licensing System and Coast Guard Vessel Documentation Center.

Last reported at 2018-Jan-20 22:32 UTC. Time now 2018-Jan-21 03:13 UTC.
Position N 44°03' W 068°52'.

Length 40 m; draft 3.2 m.

Type: Passenger vessel. MMSI: 367342230.

Date/timePositionNaut miles runAvg speedWind from/ knotsBaromVisibWave heightAir tempDewpointWater temp
2018-Jan-20 22:32N 44°03' W 068°52'211.0
2018-Jan-20 22:23N 44°04' W 068°54'411.2
2018-Jan-20 21:59N 44°05' W 068°59'510.7
2018-Jan-20 21:30N 44°06' W 069°06'0 0.7
2018-Jan-20 20:59N 44°06' W 069°06'510.3
2018-Jan-20 20:30N 44°06' W 068°59'510.2
2018-Jan-20 19:59N 44°03' W 068°53'2 3.0
2018-Jan-20 19:25N 44°03' W 068°50'1 3.3
2018-Jan-20 18:59N 44°03' W 068°52'511.2
2018-Jan-20 18:30N 44°05' W 068°59'510.4
2018-Jan-20 17:59N 44°06' W 069°06'0 0.0
2018-Jan-20 17:29N 44°06' W 069°06'0 0.0
2018-Jan-20 16:56N 44°06' W 069°06'2 5.0
2018-Jan-20 16:30N 44°06' W 069°04'510.6
2018-Jan-20 16:00N 44°05' W 068°56'4 3.8
2018-Jan-20 14:51N 44°03' W 068°51'410.6
2018-Jan-20 14:29N 44°04' W 068°56'611.3
2018-Jan-20 14:00N 44°06' W 069°03'2 5.0
2018-Jan-20 13:30N 44°06' W 069°06'3 6.5
2018-Jan-20 13:00N 44°06' W 069°02'5 9.3
2018-Jan-20 12:29N 44°05' W 068°56'4 8.4
2018-Jan-20 11:59N 44°03' W 068°50'1 0.0
2018-Jan-19 22:41N 44°02' W 068°51'210.6
2018-Jan-19 22:28N 44°04' W 068°54'510.9
2018-Jan-19 22:00N 44°06' W 069°00'5 5.6
2018-Jan-19 21:11N 44°06' W 069°06'1 4.4
2018-Jan-19 20:59N 44°06' W 069°05'510.9
2018-Jan-19 20:29N 44°05' W 068°58'510.2
2018-Jan-19 20:00N 44°03' W 068°52'1 2.0
2018-Jan-19 19:26N 44°03' W 068°50'1 3.4
2018-Jan-19 19:01N 44°03' W 068°52'611.2
2018-Jan-19 18:29N 44°06' W 068°60'5 8.7
2018-Jan-19 17:55N 44°06' W 069°06'0 0.0
2018-Jan-19 17:26N 44°06' W 069°06'0 0.0
2018-Jan-19 16:56N 44°06' W 069°06'3 6.8
2018-Jan-19 16:30N 44°06' W 069°02'510.5
2018-Jan-19 16:00N 44°04' W 068°55'4 8.1
2018-Jan-19 15:30N 44°03' W 068°50'0 0.0
2018-Jan-19 14:12N 44°03' W 068°50'0 1.2
2018-Jan-19 13:59N 44°02' W 068°50'0 0.0
2018-Jan-19 13:30N 44°02' W 068°50'0 0.0
2018-Jan-19 01:55N 44°02' W 068°51'510.4
2018-Jan-19 01:29N 44°05' W 068°56'511.3
2018-Jan-19 01:00N 44°06' W 069°04'2 3.8
2018-Jan-19 00:28N 44°06' W 069°06'2 4.4
2018-Jan-18 23:59N 44°06' W 069°04'510.9
2018-Jan-18 23:29N 44°05' W 068°56'5 9.9
2018-Jan-18 23:00N 44°03' W 068°50'3 4.5
2018-Jan-18 22:24N 44°04' W 068°54'411.1
2018-Jan-18 22:00N 44°05' W 068°59'5 4.9
2018-Jan-18 20:58N 44°06' W 069°06'510.4
2018-Jan-18 20:29N 44°06' W 068°59'510.4
2018-Jan-18 19:58N 44°03' W 068°53'2 2.8
2018-Jan-18 19:22N 44°03' W 068°50'2 5.1
2018-Jan-18 18:57N 44°03' W 068°53'511.4
2018-Jan-18 18:30N 44°05' W 068°59'5 2.9
2018-Jan-18 16:44N 44°06' W 069°06'2 9.0
2018-Jan-18 16:30N 44°06' W 069°03'510.7
2018-Jan-18 16:00N 44°05' W 068°56'5 9.4
2018-Jan-18 15:30N 44°03' W 068°50'1 0.9
2018-Jan-18 14:56N 44°02' W 068°51'510.5
2018-Jan-18 14:30N 44°05' W 068°56'510.8
2018-Jan-18 14:00N 44°06' W 069°04'2 3.9
2018-Jan-18 13:28N 44°06' W 069°06'3 6.2
2018-Jan-18 13:00N 44°06' W 069°03'611.0
2018-Jan-18 12:30N 44°04' W 068°55'4 7.5
2018-Jan-18 11:59N 44°03' W 068°50'  
2018-Jan-12 14:52N 44°03' W 068°52'511.2
2018-Jan-12 14:26N 44°05' W 068°58'510.5
2018-Jan-12 13:59N 44°06' W 069°04'2 3.2
2018-Jan-12 13:24N 44°06' W 069°06'4 9.5
2018-Jan-12 13:00N 44°06' W 069°01'510.4
2018-Jan-12 12:30N 44°04' W 068°54'3 6.3
2018-Jan-12 12:00N 44°03' W 068°50'1 0.1
2018-Jan-11 22:38N 44°03' W 068°52'210.9
2018-Jan-11 22:28N 44°04' W 068°54'510.0
2018-Jan-11 22:00N 44°06' W 068°60'5 4.6
2018-Jan-11 20:59N 44°06' W 069°06'510.2
2018-Jan-11 20:30N 44°05' W 068°59'510.1
2018-Jan-11 20:00N 44°03' W 068°53'1 1.6
2018-Jan-11 19:16N 44°03' W 068°51'310.1
2018-Jan-11 18:58N 44°04' W 068°55'5 9.2
2018-Jan-11 18:28N 44°05' W 069°01'4 2.5
2018-Jan-11 16:54N 44°06' W 069°06'4 9.3
2018-Jan-11 16:30N 44°05' W 069°01'5 9.6
2018-Jan-11 16:00N 44°04' W 068°55'3 2.5
2018-Jan-11 15:00N 44°03' W 068°52'510.0
2018-Jan-11 14:30N 44°05' W 068°58'5 9.9
2018-Jan-11 13:58N 44°06' W 069°05'0 0.8
2018-Jan-11 13:30N 44°06' W 069°06'5 9.9
2018-Jan-11 12:58N 44°05' W 068°59'4 8.2
2018-Jan-11 12:30N 44°04' W 068°54'  
Track history (hours):
 
Tides and Currents Weather Stations Pressure Air Temp Water Temp Dewpoint Dewpoint Depression Visibility Wind Speed Wind Dir Waves Ship Positions

Captain Charles Philbrook

Owner: MAINE STATE FERRY SERVICE, ROCKLAND, ME. More information available from US FCC via Universal Licensing System and Coast Guard Vessel Documentation Center.

Last reported at 2018-Jan-20 22:32 UTC. Time now 2018-Jan-21 03:13 UTC.
Position N 44°03' W 068°52'.

Length 40 m; draft 3.2 m.

Type: Passenger vessel. MMSI: 367342230.

Date/timePositionNaut miles runAvg speedWind from/ knotsBaromVisibWave heightAir tempDewpointWater temp
2018-Jan-20 22:32N 44°03' W 068°52'211.0
2018-Jan-20 22:23N 44°04' W 068°54'411.2
2018-Jan-20 21:59N 44°05' W 068°59'510.7
2018-Jan-20 21:30N 44°06' W 069°06'0 0.7
2018-Jan-20 20:59N 44°06' W 069°06'510.3
2018-Jan-20 20:30N 44°06' W 068°59'510.2
2018-Jan-20 19:59N 44°03' W 068°53'2 3.0
2018-Jan-20 19:25N 44°03' W 068°50'1 3.3
2018-Jan-20 18:59N 44°03' W 068°52'511.2
2018-Jan-20 18:30N 44°05' W 068°59'510.4
2018-Jan-20 17:59N 44°06' W 069°06'0 0.0
2018-Jan-20 17:29N 44°06' W 069°06'0 0.0
2018-Jan-20 16:56N 44°06' W 069°06'2 5.0
2018-Jan-20 16:30N 44°06' W 069°04'510.6
2018-Jan-20 16:00N 44°05' W 068°56'4 3.8
2018-Jan-20 14:51N 44°03' W 068°51'410.6
2018-Jan-20 14:29N 44°04' W 068°56'611.3
2018-Jan-20 14:00N 44°06' W 069°03'2 5.0
2018-Jan-20 13:30N 44°06' W 069°06'3 6.5
2018-Jan-20 13:00N 44°06' W 069°02'5 9.3
2018-Jan-20 12:29N 44°05' W 068°56'4 8.4
2018-Jan-20 11:59N 44°03' W 068°50'1 0.0
2018-Jan-19 22:41N 44°02' W 068°51'210.6
2018-Jan-19 22:28N 44°04' W 068°54'510.9
2018-Jan-19 22:00N 44°06' W 069°00'5 5.6
2018-Jan-19 21:11N 44°06' W 069°06'1 4.4
2018-Jan-19 20:59N 44°06' W 069°05'510.9
2018-Jan-19 20:29N 44°05' W 068°58'510.2
2018-Jan-19 20:00N 44°03' W 068°52'1 2.0
2018-Jan-19 19:26N 44°03' W 068°50'1 3.4
2018-Jan-19 19:01N 44°03' W 068°52'611.2
2018-Jan-19 18:29N 44°06' W 068°60'5 8.7
2018-Jan-19 17:55N 44°06' W 069°06'0 0.0
2018-Jan-19 17:26N 44°06' W 069°06'0 0.0
2018-Jan-19 16:56N 44°06' W 069°06'3 6.8
2018-Jan-19 16:30N 44°06' W 069°02'510.5
2018-Jan-19 16:00N 44°04' W 068°55'4 8.1
2018-Jan-19 15:30N 44°03' W 068°50'0 0.0
2018-Jan-19 14:12N 44°03' W 068°50'0 1.2
2018-Jan-19 13:59N 44°02' W 068°50'0 0.0
2018-Jan-19 13:30N 44°02' W 068°50'0 0.0
2018-Jan-19 01:55N 44°02' W 068°51'510.4
2018-Jan-19 01:29N 44°05' W 068°56'511.3
2018-Jan-19 01:00N 44°06' W 069°04'2 3.8
2018-Jan-19 00:28N 44°06' W 069°06'2 4.4
2018-Jan-18 23:59N 44°06' W 069°04'510.9
2018-Jan-18 23:29N 44°05' W 068°56'5 9.9
2018-Jan-18 23:00N 44°03' W 068°50'3 4.5
2018-Jan-18 22:24N 44°04' W 068°54'411.1
2018-Jan-18 22:00N 44°05' W 068°59'5 4.9
2018-Jan-18 20:58N 44°06' W 069°06'510.4
2018-Jan-18 20:29N 44°06' W 068°59'510.4
2018-Jan-18 19:58N 44°03' W 068°53'2 2.8
2018-Jan-18 19:22N 44°03' W 068°50'2 5.1
2018-Jan-18 18:57N 44°03' W 068°53'511.4
2018-Jan-18 18:30N 44°05' W 068°59'5 2.9
2018-Jan-18 16:44N 44°06' W 069°06'2 9.0
2018-Jan-18 16:30N 44°06' W 069°03'510.7
2018-Jan-18 16:00N 44°05' W 068°56'5 9.4
2018-Jan-18 15:30N 44°03' W 068°50'1 0.9
2018-Jan-18 14:56N 44°02' W 068°51'510.5
2018-Jan-18 14:30N 44°05' W 068°56'510.8
2018-Jan-18 14:00N 44°06' W 069°04'2 3.9
2018-Jan-18 13:28N 44°06' W 069°06'3 6.2
2018-Jan-18 13:00N 44°06' W 069°03'611.0
2018-Jan-18 12:30N 44°04' W 068°55'4 7.5
2018-Jan-18 11:59N 44°03' W 068°50'  
2018-Jan-12 14:52N 44°03' W 068°52'511.2
2018-Jan-12 14:26N 44°05' W 068°58'510.5
2018-Jan-12 13:59N 44°06' W 069°04'2 3.2
2018-Jan-12 13:24N 44°06' W 069°06'4 9.5
2018-Jan-12 13:00N 44°06' W 069°01'510.4
2018-Jan-12 12:30N 44°04' W 068°54'3 6.3
2018-Jan-12 12:00N 44°03' W 068°50'1 0.1
2018-Jan-11 22:38N 44°03' W 068°52'210.9
2018-Jan-11 22:28N 44°04' W 068°54'510.0
2018-Jan-11 22:00N 44°06' W 068°60'5 4.6
2018-Jan-11 20:59N 44°06' W 069°06'510.2
2018-Jan-11 20:30N 44°05' W 068°59'510.1
2018-Jan-11 20:00N 44°03' W 068°53'1 1.6
2018-Jan-11 19:16N 44°03' W 068°51'310.1
2018-Jan-11 18:58N 44°04' W 068°55'5 9.2
2018-Jan-11 18:28N 44°05' W 069°01'4 2.5
2018-Jan-11 16:54N 44°06' W 069°06'4 9.3
2018-Jan-11 16:30N 44°05' W 069°01'5 9.6
2018-Jan-11 16:00N 44°04' W 068°55'3 2.5
2018-Jan-11 15:00N 44°03' W 068°52'510.0
2018-Jan-11 14:30N 44°05' W 068°58'5 9.9
2018-Jan-11 13:58N 44°06' W 069°05'0 0.8
2018-Jan-11 13:30N 44°06' W 069°06'5 9.9
2018-Jan-11 12:58N 44°05' W 068°59'4 8.2
2018-Jan-11 12:30N 44°04' W 068°54'  

Dump ship's entire track history